Terminal Aerodrome Forecast
Issued by NWS

Home | Current Version | Previous Version | Text Only | Print | Product List | Glossary On
Versions: 1 2 3 4 5 6 7 8 9 10 11 12 13 14 15 16 17 18 19 20
000
FTUS43 KIND 211000 AAA
TAFBMG
TAF AMD
KBMG 211002Z 2110/2206 25008KT P6SM BKN020
     FM211300 26009KT P6SM SCT020
     FM211600 28012G18KT P6SM SCT035
     FM220100 36005KT P6SM SCT025
      AMD LTD TO CLD VIS AND WIND TIL 211300=

USA.gov is the U.S. government's official web portal to all federal, state and local government web resources and services.